createdAt,value
2022-08-26T00:02:12.765Z,6.55
2022-08-26T00:04:40.586Z,6.50
2022-08-26T00:07:08.340Z,6.68
2022-08-26T00:09:37.332Z,6.28
2022-08-26T00:12:09.029Z,7.10
2022-08-26T00:14:37.040Z,6.63
2022-08-26T00:17:04.811Z,5.93
2022-08-26T00:19:32.744Z,6.75
2022-08-26T00:22:01.452Z,5.85
2022-08-26T00:24:28.906Z,5.75
2022-08-26T00:26:56.942Z,6.45
2022-08-26T00:29:24.305Z,6.47
2022-08-26T00:31:51.810Z,6.22
2022-08-26T00:34:19.778Z,6.97
2022-08-26T00:36:49.219Z,6.65
2022-08-26T00:39:16.737Z,6.57
2022-08-26T00:41:44.457Z,6.30
2022-08-26T00:44:12.734Z,6.57
2022-08-26T00:46:47.174Z,6.10
2022-08-26T00:49:40.343Z,6.25
2022-08-26T00:52:14.580Z,6.93
2022-08-26T00:54:54.997Z,6.68
2022-08-26T00:57:23.465Z,6.32
2022-08-26T00:59:57.480Z,5.97
2022-08-26T01:02:25.426Z,6.67
2022-08-26T01:04:56.477Z,5.93
2022-08-26T01:07:27.577Z,6.55
2022-08-26T01:10:00.594Z,5.85
2022-08-26T01:12:33.724Z,5.70
2022-08-26T01:15:02.768Z,5.90
2022-08-26T01:17:33.758Z,5.50
2022-08-26T01:20:24.753Z,5.93
2022-08-26T01:23:05.372Z,6.38
2022-08-26T01:25:36.992Z,6.00
2022-08-26T01:28:11.930Z,6.68
2022-08-26T01:30:41.816Z,5.88
2022-08-26T01:33:15.639Z,5.00
2022-08-26T01:35:44.590Z,5.70
2022-08-26T01:38:13.112Z,6.25
2022-08-26T01:40:43.877Z,5.20
2022-08-26T01:43:17.298Z,5.63
2022-08-26T01:45:48.209Z,5.65
2022-08-26T01:48:20.980Z,5.55
2022-08-26T01:50:50.150Z,5.20
2022-08-26T01:53:19.816Z,5.75
2022-08-26T01:55:53.157Z,5.85
2022-08-26T01:58:24.805Z,5.53
2022-08-26T02:00:53.022Z,5.15
2022-08-26T02:03:24.084Z,5.32
2022-08-26T02:06:00.753Z,5.45
2022-08-26T02:08:36.956Z,5.70
2022-08-26T02:11:05.442Z,5.35
2022-08-26T02:13:38.256Z,4.95
2022-08-26T02:16:08.520Z,4.93
2022-08-26T02:18:40.272Z,5.50
2022-08-26T02:21:09.692Z,4.80
2022-08-26T02:23:38.646Z,4.90
2022-08-26T02:26:11.358Z,5.25
2022-08-26T02:29:02.589Z,4.82
2022-08-26T02:31:30.389Z,4.55
2022-08-26T02:34:31.309Z,4.72
2022-08-26T02:37:10.815Z,5.05
2022-08-26T02:39:40.612Z,5.00
2022-08-26T02:42:08.678Z,5.03
2022-08-26T02:44:37.224Z,4.90
2022-08-26T02:47:07.838Z,5.28
2022-08-26T02:49:37.593Z,4.80
2022-08-26T02:52:05.111Z,4.65
2022-08-26T02:54:33.121Z,5.28
2022-08-26T02:57:02.930Z,5.30
2022-08-26T02:59:31.365Z,5.53
2022-08-26T03:01:58.863Z,5.30
2022-08-26T03:04:26.533Z,4.90
2022-08-26T03:06:55.343Z,4.75
2022-08-26T03:09:23.592Z,5.45
2022-08-26T03:11:52.312Z,5.18
2022-08-26T03:14:19.793Z,5.15
2022-08-26T03:16:50.834Z,6.00
2022-08-26T03:19:18.922Z,5.68
2022-08-26T03:21:47.261Z,5.35
2022-08-26T03:24:15.695Z,5.05
2022-08-26T03:26:52.125Z,4.75
2022-08-26T03:29:40.786Z,4.85
2022-08-26T03:32:09.642Z,4.82
2022-08-26T03:34:39.099Z,4.88
2022-08-26T03:37:06.850Z,4.88
2022-08-26T03:39:35.168Z,5.20
2022-08-26T03:42:02.744Z,5.30
2022-08-26T03:44:31.076Z,5.07
2022-08-26T03:46:58.768Z,5.45
2022-08-26T03:49:26.222Z,6.03
2022-08-26T03:51:56.566Z,6.70
2022-08-26T03:54:24.521Z,5.28
2022-08-26T03:56:52.014Z,5.65
2022-08-26T03:59:22.157Z,4.95
2022-08-26T04:01:50.669Z,5.35
2022-08-26T04:04:18.343Z,5.32
2022-08-26T04:06:58.376Z,5.32
2022-08-26T04:09:27.514Z,5.63
2022-08-26T04:11:56.774Z,5.90
2022-08-26T04:14:26.627Z,5.40
2022-08-26T04:16:55.434Z,5.43
2022-08-26T04:19:25.588Z,5.72
2022-08-26T04:21:54.877Z,5.50
2022-08-26T04:24:24.421Z,5.18
2022-08-26T04:26:53.157Z,5.32
2022-08-26T04:29:25.848Z,4.90
2022-08-26T04:31:55.920Z,5.13
2022-08-26T04:34:27.228Z,5.53
2022-08-26T04:36:57.792Z,4.93
2022-08-26T04:39:25.621Z,5.20
2022-08-26T04:41:55.541Z,4.82
2022-08-26T04:44:25.723Z,5.10
2022-08-26T04:46:53.976Z,4.97
2022-08-26T04:49:23.136Z,5.03
2022-08-26T04:51:54.736Z,5.28
2022-08-26T04:54:22.698Z,4.82
2022-08-26T04:56:50.752Z,4.93
2022-08-26T04:59:18.486Z,5.20
2022-08-26T05:01:48.548Z,4.70
2022-08-26T05:04:18.955Z,4.65
2022-08-26T05:06:50.841Z,4.78
2022-08-26T05:09:19.774Z,5.00
2022-08-26T05:11:52.097Z,5.00
2022-08-26T05:14:21.509Z,4.60
2022-08-26T05:16:50.111Z,4.57
2022-08-26T05:19:19.270Z,4.72
2022-08-26T05:21:48.523Z,4.75
2022-08-26T05:24:17.396Z,4.22
2022-08-26T05:26:46.722Z,4.82
2022-08-26T05:29:16.021Z,4.40
2022-08-26T05:31:44.649Z,3.75
2022-08-26T05:34:12.607Z,4.80
2022-08-26T05:36:40.178Z,4.53
2022-08-26T05:39:10.535Z,4.40
2022-08-26T05:41:41.090Z,4.90
2022-08-26T05:44:12.037Z,4.55
2022-08-26T05:46:40.810Z,4.13
2022-08-26T05:49:12.834Z,4.35
2022-08-26T05:51:45.054Z,4.22
2022-08-26T05:54:14.254Z,3.95
2022-08-26T05:56:51.865Z,4.60
2022-08-26T05:59:24.397Z,4.72
2022-08-26T06:01:54.593Z,4.25
2022-08-26T06:04:28.099Z,4.60
2022-08-26T06:09:25.405Z,4.40
2022-08-26T06:11:52.874Z,4.28
2022-08-26T06:14:21.613Z,4.38
2022-08-26T06:16:49.010Z,4.45
2022-08-26T06:19:17.240Z,3.95
2022-08-26T06:21:51.316Z,4.10
2022-08-26T06:24:41.309Z,4.40
2022-08-26T06:27:13.455Z,4.75
2022-08-26T06:29:41.813Z,5.05
2022-08-26T06:32:09.567Z,3.95
2022-08-26T06:34:37.116Z,4.57
2022-08-26T06:37:06.442Z,4.50
2022-08-26T06:39:34.561Z,4.55
2022-08-26T06:42:03.136Z,4.25
2022-08-26T06:44:33.605Z,4.53
2022-08-26T06:47:01.724Z,5.00
2022-08-26T06:49:29.148Z,4.68
2022-08-26T06:51:59.054Z,4.13
2022-08-26T06:54:30.264Z,4.38
2022-08-26T06:56:57.911Z,4.45
2022-08-26T06:59:25.733Z,3.83
2022-08-26T07:01:54.721Z,4.65
2022-08-26T07:04:24.445Z,4.05
2022-08-26T07:06:53.523Z,3.58
2022-08-26T07:09:24.248Z,4.03
2022-08-26T07:11:53.153Z,4.30
2022-08-26T07:14:21.620Z,4.40
2022-08-26T07:16:50.785Z,4.25
2022-08-26T07:19:30.566Z,3.60
2022-08-26T07:22:03.409Z,4.07
2022-08-26T07:24:36.875Z,4.07
2022-08-26T07:27:08.705Z,4.30
2022-08-26T07:29:39.374Z,4.07
2022-08-26T07:32:08.209Z,4.32
2022-08-26T07:34:38.397Z,4.45
2022-08-26T07:37:06.268Z,4.25
2022-08-26T07:39:36.681Z,4.10
2022-08-26T07:42:07.435Z,4.65
2022-08-26T07:44:37.328Z,4.22
2022-08-26T07:47:10.547Z,4.20
2022-08-26T07:49:57.354Z,4.03
2022-08-26T07:52:27.728Z,4.05
2022-08-26T07:55:00.273Z,4.18
2022-08-26T07:57:29.525Z,4.43
2022-08-26T07:59:57.805Z,4.28
2022-08-26T08:02:28.073Z,4.18
2022-08-26T08:04:57.770Z,4.22
2022-08-26T08:07:38.758Z,4.47
2022-08-26T08:10:18.960Z,4.47
2022-08-26T08:12:49.613Z,3.95
2022-08-26T08:15:21.153Z,4.55
2022-08-26T08:17:50.539Z,4.30
2022-08-26T08:20:20.245Z,4.78
2022-08-26T08:22:47.973Z,4.30
2022-08-26T08:25:15.899Z,4.45
2022-08-26T08:27:48.559Z,4.43
2022-08-26T08:30:20.819Z,4.55
2022-08-26T08:32:51.960Z,4.38
2022-08-26T08:35:23.123Z,4.78
2022-08-26T08:37:54.338Z,5.00
2022-08-26T08:40:24.984Z,4.40
2022-08-26T08:43:04.841Z,4.38
2022-08-26T08:45:40.913Z,4.35
2022-08-26T08:48:29.540Z,4.15
2022-08-26T08:51:06.431Z,4.57
2022-08-26T08:53:39.418Z,4.82
2022-08-26T08:56:32.821Z,5.00
2022-08-26T08:59:17.728Z,4.60
2022-08-26T09:04:38.593Z,4.90
2022-08-26T09:07:11.798Z,4.13
2022-08-26T09:10:00.270Z,4.20
2022-08-26T09:12:31.435Z,4.47
2022-08-26T09:15:07.716Z,4.70
2022-08-26T09:17:42.409Z,3.72
2022-08-26T09:20:25.864Z,4.10
2022-08-26T09:22:53.624Z,4.00
2022-08-26T09:25:21.284Z,4.38
2022-08-26T09:27:52.768Z,4.35
2022-08-26T09:30:35.295Z,4.13
2022-08-26T09:33:11.125Z,4.50
2022-08-26T09:35:40.957Z,3.83
2022-08-26T09:38:22.878Z,4.35
2022-08-26T09:41:01.270Z,4.32
2022-08-26T09:43:29.973Z,3.50
2022-08-26T09:46:19.474Z,3.85
2022-08-26T09:48:47.513Z,4.35
2022-08-26T09:51:26.297Z,3.90
2022-08-26T09:53:57.678Z,4.20
2022-08-26T09:56:32.587Z,3.58
2022-08-26T09:59:01.736Z,3.33
2022-08-26T10:01:36.075Z,3.88
2022-08-26T10:04:26.783Z,3.63
2022-08-26T10:07:00.539Z,3.53
2022-08-26T10:09:33.275Z,3.13
2022-08-26T10:12:08.224Z,3.40
2022-08-26T10:17:20.922Z,3.65
2022-08-26T10:19:57.905Z,3.53
2022-08-26T10:22:50.701Z,2.97
2022-08-26T10:25:28.349Z,3.53
2022-08-26T10:28:10.994Z,3.42
2022-08-26T10:30:45.384Z,3.42
2022-08-26T10:33:18.426Z,3.30
2022-08-26T10:35:56.306Z,3.45
2022-08-26T10:38:34.737Z,3.08
2022-08-26T10:41:14.324Z,2.75
2022-08-26T10:43:55.227Z,3.28
2022-08-26T10:46:27.419Z,2.50
2022-08-26T10:49:11.555Z,2.78
2022-08-26T10:52:16.499Z,3.38
2022-08-26T10:55:05.854Z,2.70
2022-08-26T10:57:42.123Z,3.03
2022-08-26T11:00:37.414Z,2.85
2022-08-26T11:03:32.511Z,3.03
2022-08-26T11:06:18.531Z,3.05
2022-08-26T11:08:47.603Z,2.47
2022-08-26T11:11:39.729Z,2.53
2022-08-26T11:14:08.727Z,2.88
2022-08-26T11:16:49.769Z,2.80
2022-08-26T11:19:40.130Z,3.05
2022-08-26T11:22:34.822Z,3.15
2022-08-26T11:25:57.016Z,2.63
2022-08-26T11:28:38.452Z,2.42
2022-08-26T11:31:12.927Z,2.45
2022-08-26T11:33:43.876Z,2.58
2022-08-26T11:36:33.341Z,2.35
2022-08-26T11:39:54.821Z,2.40
2022-08-26T11:42:33.114Z,2.45
2022-08-26T11:45:13.660Z,2.90
2022-08-26T11:47:42.053Z,2.80
2022-08-26T11:50:13.458Z,2.58
2022-08-26T11:52:40.957Z,2.50
2022-08-26T11:55:14.945Z,2.70
2022-08-26T11:57:47.747Z,2.20
2022-08-26T12:00:33.721Z,2.28
2022-08-26T12:03:07.228Z,2.30
2022-08-26T12:05:42.201Z,2.55
2022-08-26T12:08:13.715Z,2.40
2022-08-26T12:10:43.797Z,2.20
2022-08-26T12:13:22.062Z,2.40
2022-08-26T12:15:58.581Z,2.40
2022-08-26T12:18:30.252Z,2.22
2022-08-26T12:21:12.294Z,2.72
2022-08-26T12:23:48.043Z,2.25
2022-08-26T12:26:33.777Z,2.25
2022-08-26T12:29:10.033Z,2.20
2022-08-26T12:32:15.203Z,2.33
2022-08-26T12:34:44.208Z,2.20
2022-08-26T12:37:13.996Z,2.42
2022-08-26T12:39:44.526Z,2.60
2022-08-26T12:42:12.200Z,2.00
2022-08-26T12:44:53.263Z,2.55
2022-08-26T12:47:42.566Z,2.20
2022-08-26T12:50:29.059Z,3.63
2022-08-26T12:53:08.800Z,2.67
2022-08-26T12:55:41.688Z,2.47
2022-08-26T12:58:39.434Z,2.17
2022-08-26T13:01:07.056Z,2.38
2022-08-26T13:03:35.231Z,2.50
2022-08-26T13:06:22.162Z,2.83
2022-08-26T13:08:55.954Z,2.33
2022-08-26T13:11:29.993Z,2.43
2022-08-26T13:14:07.058Z,2.20
2022-08-26T13:16:36.010Z,2.67
2022-08-26T13:19:10.359Z,2.50
2022-08-26T13:21:44.929Z,2.53
2022-08-26T13:26:43.650Z,2.30
2022-08-26T13:29:12.033Z,3.03
2022-08-26T13:31:42.100Z,2.88
2022-08-26T13:34:11.965Z,2.40
2022-08-26T13:36:39.473Z,2.50
2022-08-26T13:39:07.256Z,2.45
2022-08-26T13:41:36.201Z,2.58
2022-08-26T13:44:04.741Z,2.60
2022-08-26T13:46:33.980Z,2.60
2022-08-26T13:49:02.131Z,2.95
2022-08-26T13:51:30.126Z,2.33
2022-08-26T13:53:57.988Z,3.05
2022-08-26T13:56:29.338Z,2.75
2022-08-26T13:58:58.484Z,3.15
2022-08-26T14:01:28.964Z,2.50
2022-08-26T14:03:56.587Z,2.97
2022-08-26T14:06:25.168Z,3.50
2022-08-26T14:08:52.968Z,2.72
2022-08-26T14:11:21.471Z,3.10
2022-08-26T14:13:48.953Z,3.50
2022-08-26T14:16:25.741Z,3.30
2022-08-26T14:18:54.010Z,3.05
2022-08-26T14:21:22.000Z,3.00
2022-08-26T14:23:49.394Z,3.50
2022-08-26T14:26:28.587Z,2.70
2022-08-26T14:28:59.544Z,3.13
2022-08-26T14:31:31.320Z,3.15
2022-08-26T14:34:03.641Z,3.00
2022-08-26T14:36:32.369Z,3.08
2022-08-26T14:39:06.882Z,2.80
2022-08-26T14:41:38.195Z,3.22
2022-08-26T14:44:10.767Z,2.97
2022-08-26T14:46:46.870Z,2.80
2022-08-26T14:49:14.713Z,3.42
2022-08-26T14:51:42.210Z,3.15
2022-08-26T14:54:13.761Z,2.92
2022-08-26T14:56:55.612Z,2.85
2022-08-26T14:59:43.554Z,2.90
2022-08-26T15:02:30.908Z,3.17
2022-08-26T15:05:02.209Z,2.83
2022-08-26T15:07:30.137Z,2.88
2022-08-26T15:09:58.025Z,2.90
2022-08-26T15:12:25.780Z,2.85
2022-08-26T15:14:53.877Z,2.50
2022-08-26T15:17:21.317Z,2.83
2022-08-26T15:19:48.864Z,2.67
2022-08-26T15:22:16.706Z,2.42
2022-08-26T15:24:45.283Z,2.40
2022-08-26T15:27:12.820Z,2.80
2022-08-26T15:29:40.561Z,2.38
2022-08-26T15:32:08.179Z,2.85
2022-08-26T15:34:35.710Z,2.70
2022-08-26T15:37:06.142Z,2.75
2022-08-26T15:39:34.843Z,3.00
2022-08-26T15:42:03.756Z,3.10
2022-08-26T15:44:31.419Z,2.70
2022-08-26T15:46:59.419Z,3.30
2022-08-26T15:49:27.669Z,2.95
2022-08-26T15:51:55.573Z,2.90
2022-08-26T15:54:24.156Z,2.53
2022-08-26T15:56:52.959Z,3.08
2022-08-26T15:59:22.025Z,2.92
2022-08-26T16:01:50.574Z,3.45
2022-08-26T16:04:18.671Z,3.30
2022-08-26T16:06:50.082Z,3.50
2022-08-26T16:09:19.440Z,3.30
2022-08-26T16:11:49.511Z,3.50
2022-08-26T16:14:17.117Z,4.15
2022-08-26T16:16:44.489Z,4.20
2022-08-26T16:19:12.857Z,3.92
2022-08-26T16:21:41.226Z,3.95
2022-08-26T16:24:09.020Z,3.70
2022-08-26T16:26:38.494Z,3.95
2022-08-26T16:29:12.221Z,3.85
2022-08-26T16:31:41.025Z,3.60
2022-08-26T16:34:09.148Z,3.65
2022-08-26T16:36:39.016Z,3.67
2022-08-26T16:39:07.953Z,4.15
2022-08-26T16:41:37.062Z,3.97
2022-08-26T16:44:07.050Z,3.97
2022-08-26T16:46:35.813Z,3.60
2022-08-26T16:49:04.577Z,4.70
2022-08-26T16:51:37.920Z,3.92
2022-08-26T16:54:07.567Z,4.25
2022-08-26T16:56:36.467Z,4.20
2022-08-26T16:59:06.078Z,4.70
2022-08-26T17:01:33.835Z,3.60
2022-08-26T17:04:01.429Z,3.95
2022-08-26T17:06:29.710Z,3.70
2022-08-26T17:08:57.847Z,3.42
2022-08-26T17:11:25.542Z,3.67
2022-08-26T17:13:53.017Z,3.90
2022-08-26T17:16:23.284Z,3.92
2022-08-26T17:18:58.930Z,3.85
2022-08-26T17:21:28.301Z,3.65
2022-08-26T17:23:56.519Z,3.90
2022-08-26T17:26:24.000Z,4.18
2022-08-26T17:28:51.522Z,3.80
2022-08-26T17:31:21.301Z,4.00
2022-08-26T17:33:53.874Z,3.95
2022-08-26T17:36:27.980Z,4.15
2022-08-26T17:38:57.614Z,4.47
2022-08-26T17:41:25.899Z,4.32
2022-08-26T17:43:53.501Z,4.50
2022-08-26T17:46:21.112Z,4.32
2022-08-26T17:48:48.835Z,4.55
2022-08-26T17:51:19.245Z,4.38
2022-08-26T17:53:47.850Z,4.70
2022-08-26T17:56:17.789Z,4.38
2022-08-26T17:58:51.016Z,4.20
2022-08-26T18:01:26.120Z,4.45
2022-08-26T18:03:59.680Z,4.85
2022-08-26T18:06:30.511Z,4.50
2022-08-26T18:08:59.315Z,5.10
2022-08-26T18:11:29.532Z,5.07
2022-08-26T18:13:57.650Z,4.88
2022-08-26T18:16:25.249Z,4.70
2022-08-26T18:18:53.594Z,4.95
2022-08-26T18:21:24.585Z,5.28
2022-08-26T18:23:53.577Z,5.30
2022-08-26T18:26:36.316Z,5.10
2022-08-26T18:29:05.433Z,5.13
2022-08-26T18:31:33.828Z,5.47
2022-08-26T18:34:02.937Z,5.35
2022-08-26T18:36:36.931Z,5.70
2022-08-26T18:39:05.989Z,5.90
2022-08-26T18:41:39.073Z,5.72
2022-08-26T18:44:09.482Z,5.70
2022-08-26T18:46:40.804Z,5.82
2022-08-26T18:49:12.436Z,5.53
2022-08-26T18:51:40.753Z,5.85
2022-08-26T18:54:08.657Z,5.65
2022-08-26T18:56:39.368Z,5.60
2022-08-26T18:59:08.565Z,6.07
2022-08-26T19:01:39.683Z,5.55
2022-08-26T19:04:09.004Z,5.95
2022-08-26T19:06:43.416Z,5.68
2022-08-26T19:09:12.113Z,6.03
2022-08-26T19:11:42.965Z,6.22
2022-08-26T19:14:15.472Z,6.70
2022-08-26T19:16:47.490Z,5.38
2022-08-26T19:19:16.447Z,5.60
2022-08-26T19:21:44.133Z,6.65
2022-08-26T19:24:17.648Z,5.30
2022-08-26T19:26:57.912Z,6.25
2022-08-26T19:29:29.508Z,5.90
2022-08-26T19:31:57.556Z,5.78
2022-08-26T19:34:25.657Z,5.50
2022-08-26T19:36:54.098Z,6.13
2022-08-26T19:39:23.717Z,5.93
2022-08-26T19:41:52.128Z,6.05
2022-08-26T19:44:41.395Z,6.07
2022-08-26T19:47:10.650Z,6.43
2022-08-26T19:49:38.469Z,6.53
2022-08-26T19:52:07.097Z,6.15
2022-08-26T19:54:36.120Z,5.80
2022-08-26T19:57:04.484Z,5.85
2022-08-26T19:59:33.164Z,6.10
2022-08-26T20:02:01.990Z,5.85
2022-08-26T20:04:32.467Z,5.43
2022-08-26T20:07:01.612Z,6.20
2022-08-26T20:09:30.429Z,5.72
2022-08-26T20:11:58.071Z,5.47
2022-08-26T20:14:26.937Z,5.88
2022-08-26T20:16:54.882Z,5.63
2022-08-26T20:19:40.948Z,5.28
2022-08-26T20:22:11.750Z,6.32
2022-08-26T20:24:39.262Z,6.10
2022-08-26T20:27:07.936Z,5.95
2022-08-26T20:29:37.697Z,5.40
2022-08-26T20:32:07.676Z,5.40
2022-08-26T20:34:36.301Z,5.45
2022-08-26T20:37:05.466Z,5.30
2022-08-26T20:39:33.067Z,5.28
2022-08-26T20:42:00.527Z,6.03
2022-08-26T20:44:29.177Z,5.43
2022-08-26T20:46:56.720Z,5.63
2022-08-26T20:49:27.147Z,6.03
2022-08-26T20:51:55.032Z,5.07
2022-08-26T20:54:28.247Z,5.28
2022-08-26T20:56:58.226Z,5.80
2022-08-26T20:59:26.198Z,5.25
2022-08-26T21:01:54.719Z,6.18
2022-08-26T21:04:25.485Z,5.03
2022-08-26T21:06:54.377Z,5.60
2022-08-26T21:09:23.779Z,4.90
2022-08-26T21:11:52.477Z,5.65
2022-08-26T21:14:20.583Z,5.82
2022-08-26T21:16:48.345Z,5.88
2022-08-26T21:19:18.471Z,5.20
2022-08-26T21:21:47.611Z,5.35
2022-08-26T21:24:16.210Z,5.57
2022-08-26T21:26:44.076Z,5.40
2022-08-26T21:29:13.459Z,5.80
2022-08-26T21:31:45.677Z,5.55
2022-08-26T21:34:17.811Z,6.15
2022-08-26T21:36:49.864Z,5.50
2022-08-26T21:39:18.366Z,5.78
2022-08-26T21:41:47.413Z,6.20
2022-08-26T21:44:16.765Z,5.65
2022-08-26T21:46:45.822Z,5.95
2022-08-26T21:49:15.894Z,6.10
2022-08-26T21:51:47.382Z,5.82
2022-08-26T21:54:16.157Z,5.38
2022-08-26T21:56:47.015Z,5.32
2022-08-26T21:59:18.607Z,5.68
2022-08-26T22:01:47.124Z,5.80
2022-08-26T22:04:15.578Z,5.53
2022-08-26T22:06:47.073Z,5.50
2022-08-26T22:09:19.006Z,5.32
2022-08-26T22:11:47.306Z,4.95
2022-08-26T22:14:16.197Z,5.47
2022-08-26T22:16:50.224Z,5.88
2022-08-26T22:19:21.005Z,5.43
2022-08-26T22:21:53.302Z,5.22
2022-08-26T22:24:23.736Z,5.10
2022-08-26T22:26:51.797Z,5.40
2022-08-26T22:29:20.190Z,5.22
2022-08-26T22:31:48.296Z,5.50
2022-08-26T22:34:17.354Z,5.55
2022-08-26T22:36:46.731Z,5.53
2022-08-26T22:39:16.827Z,5.40
2022-08-26T22:41:46.007Z,5.13
2022-08-26T22:44:13.460Z,5.30
2022-08-26T22:46:42.512Z,5.65
2022-08-26T22:49:15.692Z,5.35
2022-08-26T22:51:45.581Z,5.07
2022-08-26T22:54:13.830Z,4.95
2022-08-26T22:56:42.045Z,5.10
2022-08-26T22:59:10.908Z,5.10
2022-08-26T23:01:42.331Z,4.95
2022-08-26T23:04:11.012Z,5.00
2022-08-26T23:06:41.513Z,5.30
2022-08-26T23:09:09.596Z,4.82
2022-08-26T23:11:39.772Z,5.32
2022-08-26T23:14:10.294Z,4.60
2022-08-26T23:16:43.540Z,4.32
2022-08-26T23:19:13.292Z,4.60
2022-08-26T23:21:41.948Z,4.80
2022-08-26T23:24:10.025Z,4.50
2022-08-26T23:26:38.925Z,4.65
2022-08-26T23:29:08.681Z,4.38
2022-08-26T23:31:37.939Z,4.90
2022-08-26T23:34:24.361Z,4.90
2022-08-26T23:36:53.801Z,4.90
2022-08-26T23:39:21.412Z,4.85
2022-08-26T23:41:48.829Z,5.00
2022-08-26T23:44:16.660Z,5.28
2022-08-26T23:46:44.067Z,4.57
2022-08-26T23:49:12.601Z,4.93
2022-08-26T23:51:59.133Z,4.65
2022-08-26T23:54:26.910Z,4.88
2022-08-26T23:56:54.720Z,4.47
2022-08-26T23:59:22.174Z,4.97
